Time;durP1;ratioP1;P1;durP2;ratioP2;P2;SDS_P1;SDS_P2;PMS_P1;PMS_P2;Temp;Humidity;BMP_temperature;BMP_pressure;BME280_temperature;BME280_humidity;BME280_pressure;Samples;Min_cycle;Max_cycle;Signal;HPM_P1;HPM_P2
2023/02/01 00:01:49;;;;;;;0.97;0.97;;;2.10;94.80;2.20;96814.00;;;;5027286;28;20420;-70
2023/02/01 00:04:38;;;;;;;0.63;0.63;;;1.90;95.00;2.10;96814.00;;;;5028341;28;20486;-72
2023/02/01 00:07:27;;;;;;;0.60;0.53;;;1.60;95.50;1.70;96802.00;;;;5025320;28;20452;-66
2023/02/01 00:10:17;;;;;;;0.40;0.40;;;1.40;96.00;2.20;96838.00;;;;5030365;28;20558;-70
2023/02/01 00:13:06;;;;;;;0.50;0.50;;;1.60;96.30;3.00;96842.00;;;;5031657;28;20428;-68
2023/02/01 00:15:55;;;;;;;0.50;0.50;;;1.70;96.40;3.80;96837.00;;;;5031829;28;20428;-68
2023/02/01 00:18:44;;;;;;;0.40;0.40;;;1.90;96.70;3.20;96827.00;;;;5030343;28;20447;-67
2023/02/01 00:21:33;;;;;;;0.60;0.60;;;2.20;96.50;3.60;96835.00;;;;5031547;28;20803;-67
2023/02/01 00:24:22;;;;;;;0.63;0.30;;;2.40;96.30;3.90;96844.00;;;;5031777;28;20424;-67
2023/02/01 00:27:17;;;;;;;1.17;0.50;;;2.50;96.40;3.80;96842.00;;;;5030672;28;20502;-69
2023/02/01 00:30:07;;;;;;;0.60;0.53;;;2.60;96.30;3.00;96832.00;;;;5030476;28;20487;-70
2023/02/01 00:32:56;;;;;;;0.40;0.40;;;2.50;95.90;3.50;96836.00;;;;5031035;28;20432;-70
2023/02/01 00:35:45;;;;;;;0.60;0.43;;;2.50;96.20;3.50;96845.00;;;;5030434;28;20447;-71
2023/02/01 00:38:36;;;;;;;0.67;0.40;;;2.40;96.80;4.00;96837.00;;;;5029867;28;20459;-69
2023/02/01 00:41:26;;;;;;;0.60;0.60;;;2.50;97.20;3.60;96831.00;;;;5031112;28;20494;-68
2023/02/01 00:44:16;;;;;;;0.40;0.40;;;2.50;97.20;3.80;96842.00;;;;5031237;28;20526;-68
2023/02/01 00:47:05;;;;;;;0.43;0.43;;;2.60;97.30;3.60;96831.00;;;;5030714;28;20455;-68
2023/02/01 00:49:53;;;;;;;0.43;0.43;;;2.60;97.50;3.60;96840.00;;;;5029972;28;20486;-69
2023/02/01 00:52:42;;;;;;;0.50;0.50;;;2.60;97.70;3.80;96834.00;;;;5030204;28;20412;-69
2023/02/01 00:55:31;;;;;;;0.80;0.50;;;2.60;97.40;3.60;96824.00;;;;5030918;28;20428;-69
2023/02/01 00:58:19;;;;;;;0.73;0.73;;;2.50;97.50;3.50;96819.00;;;;5029199;28;20571;-69
2023/02/01 01:01:13;;;;;;;0.50;0.50;;;2.40;98.20;3.40;96815.00;;;;5029911;28;20435;-69
2023/02/01 01:04:02;;;;;;;0.67;0.60;;;2.40;98.50;3.50;96811.00;;;;5031406;28;20473;-69
2023/02/01 01:06:50;;;;;;;0.83;0.50;;;2.30;98.60;3.30;96808.00;;;;5030649;28;20448;-69
2023/02/01 01:09:39;;;;;;;0.40;0.40;;;2.30;99.00;3.20;96789.00;;;;5028395;28;20983;-69
2023/02/01 01:12:28;;;;;;;0.70;0.70;;;2.20;98.80;3.20;96792.00;;;;5029916;28;20533;-69
2023/02/01 01:15:17;;;;;;;0.50;0.50;;;2.20;99.20;3.10;96781.00;;;;5029876;28;20950;-69
2023/02/01 01:18:08;;;;;;;0.50;0.50;;;2.10;99.40;2.90;96783.00;;;;5029149;28;20993;-69
2023/02/01 01:20:57;;;;;;;0.40;0.40;;;2.10;99.90;3.00;96774.00;;;;5029834;28;20442;-69
2023/02/01 01:23:47;;;;;;;0.40;0.40;;;2.10;99.90;2.90;96774.00;;;;5030473;28;21006;-69
2023/02/01 01:26:35;;;;;;;8.53;0.63;;;1.90;99.90;2.80;96775.00;;;;5030753;28;20439;-69
2023/02/01 01:29:24;;;;;;;0.40;0.40;;;1.80;99.90;2.70;96778.00;;;;5028943;28;21071;-69
2023/02/01 01:32:13;;;;;;;0.97;0.77;;;1.80;99.90;2.60;96775.00;;;;5030669;28;21022;-68
2023/02/01 01:35:03;;;;;;;0.60;0.60;;;1.80;99.90;2.30;96777.00;;;;5029383;28;20440;-68
2023/02/01 01:37:52;;;;;;;0.43;0.43;;;2.70;99.90;2.70;96782.00;;;;5030198;28;20448;-68
2023/02/01 01:40:40;;;;;;;0.63;0.60;;;1.70;99.90;2.90;96800.00;;;;5029486;28;20515;-68
2023/02/01 01:43:53;;;;;;;0.60;0.60;;;1.70;99.90;2.00;96769.00;;;;5029927;28;20521;-69
2023/02/01 01:46:41;;;;;;;0.40;0.40;;;1.70;99.90;2.20;96769.00;;;;5028884;28;20452;-68
2023/02/01 01:49:30;;;;;;;0.30;0.30;;;1.50;99.90;2.50;96764.00;;;;5029044;28;20793;-68
2023/02/01 01:52:21;;;;;;;0.60;0.60;;;1.50;99.90;2.60;96777.00;;;;5028890;28;20432;-68
2023/02/01 01:55:10;;;;;;;0.53;0.53;;;1.50;99.90;1.80;96764.00;;;;5030697;28;20424;-66
2023/02/01 01:58:03;;;;;;;0.40;0.40;;;1.60;99.90;2.10;96764.00;;;;5029525;28;20460;-68
2023/02/01 02:00:53;;;;;;;0.53;0.53;;;1.30;99.90;2.50;96773.00;;;;5030120;28;20420;-68
2023/02/01 02:03:45;;;;;;;0.30;0.30;;;1.30;99.90;1.90;96776.00;;;;5030023;28;20436;-69
2023/02/01 02:06:47;;;;;;;0.50;0.50;;;1.30;99.90;2.30;96764.00;;;;5017186;28;20439;-69
2023/02/01 02:09:37;;;;;;;0.60;0.60;;;1.20;99.90;2.50;96769.00;;;;5027208;28;20796;-69
2023/02/01 02:12:29;;;;;;;0.50;0.50;;;1.30;99.90;1.90;96749.00;;;;5028035;28;20424;-68
2023/02/01 02:15:18;;;;;;;1.33;0.57;;;1.30;99.90;1.60;96751.00;;;;5029959;28;20425;-68
2023/02/01 02:18:16;;;;;;;0.97;0.47;;;1.20;99.90;2.10;96748.00;;;;5017693;28;20971;-68
2023/02/01 02:21:15;;;;;;;1.07;0.47;;;1.20;99.90;2.10;96749.00;;;;5028576;28;20432;-67
2023/02/01 02:24:41;;;;;;;0.67;0.57;;;1.10;99.90;1.60;96749.00;;;;5029370;28;20452;-68
2023/02/01 02:27:41;;;;;;;0.53;0.53;;;1.10;99.90;1.70;96743.00;;;;5029261;28;20452;-68
2023/02/01 02:31:16;;;;;;;0.43;0.43;;;0.90;99.90;1.90;96740.00;;;;5029234;28;20460;-69
2023/02/01 02:34:16;;;;;;;1.03;0.97;;;1.00;99.90;2.10;96735.00;;;;4971306;28;20538;-69
2023/02/01 02:37:14;;;;;;;1.27;1.17;;;1.10;99.90;1.30;96719.00;;;;5030382;28;20865;-69
2023/02/01 02:40:14;;;;;;;2.30;1.70;;;1.00;99.90;1.10;96720.00;;;;5028198;28;20478;-68
2023/02/01 02:49:40;;;;;;;0.70;0.70;;;0.80;99.90;1.60;96726.00;;;;5028672;28;20848;-70
2023/02/01 02:55:40;;;;;;;1.73;0.90;;;0.90;99.90;2.20;96716.00;;;;5027844;28;21141;-67
2023/02/01 03:04:43;;;;;;;2.90;1.70;;;1.00;99.90;2.10;96728.00;;;;5028102;28;20431;-69
2023/02/01 03:07:58;;;;;;;2.17;1.50;;;1.10;99.90;2.00;96720.00;;;;5026383;28;20437;-69
2023/02/01 03:10:57;;;;;;;1.17;1.07;;;1.10;99.90;2.00;96714.00;;;;5023805;28;20993;-69
2023/02/01 03:13:50;;;;;;;1.27;1.20;;;1.00;99.90;2.30;96707.00;;;;5029350;28;20435;-68
2023/02/01 03:16:47;;;;;;;1.33;1.10;;;1.20;99.90;1.80;96704.00;;;;5027773;28;20437;-68
2023/02/01 03:19:49;;;;;;;2.80;1.13;;;1.10;99.90;2.10;96711.00;;;;5027383;28;20413;-67
2023/02/01 03:22:40;;;;;;;1.13;0.87;;;1.10;99.90;2.10;96705.00;;;;5028686;28;20438;-68
2023/02/01 03:25:32;;;;;;;5.13;0.83;;;1.20;99.90;2.00;96723.00;;;;5028853;28;20448;-69
2023/02/01 03:28:24;;;;;;;1.10;1.10;;;1.20;99.90;2.30;96701.00;;;;5027563;28;20455;-68
2023/02/01 03:31:13;;;;;;;0.63;0.63;;;1.10;99.90;2.20;96710.00;;;;5029322;28;20452;-68
2023/02/01 03:34:03;;;;;;;0.63;0.63;;;1.10;99.90;2.20;96723.00;;;;5027821;28;20432;-69
2023/02/01 03:37:00;;;;;;;1.57;1.43;;;1.10;99.90;1.70;96693.00;;;;5027934;28;20460;-68
2023/02/01 03:39:54;;;;;;;1.53;0.90;;;1.20;99.90;1.90;96697.00;;;;5027774;28;20433;-69
2023/02/01 03:42:51;;;;;;;0.67;0.67;;;0.90;99.90;1.90;96712.00;;;;5027759;28;20420;-69
2023/02/01 03:45:43;;;;;;;0.60;0.53;;;1.00;99.90;2.10;96723.00;;;;5019095;28;20447;-69
2023/02/01 03:48:35;;;;;;;0.60;0.60;;;1.00;99.90;2.20;96725.00;;;;5030095;28;20444;-69
2023/02/01 03:51:25;;;;;;;0.70;0.70;;;1.00;99.90;2.10;96714.00;;;;5031589;28;20467;-69
2023/02/01 03:54:18;;;;;;;0.53;0.53;;;1.00;99.90;1.80;96719.00;;;;5030553;28;20428;-70
2023/02/01 03:57:14;;;;;;;0.60;0.60;;;0.90;99.90;2.20;96741.00;;;;5031294;28;20924;-69
2023/02/01 04:00:09;;;;;;;1.37;1.00;;;0.90;99.90;1.50;96731.00;;;;5029953;28;20425;-69
2023/02/01 04:02:58;;;;;;;0.93;0.90;;;0.90;99.90;2.10;96734.00;;;;5030181;28;20428;-70
2023/02/01 04:05:47;;;;;;;0.60;0.60;;;1.00;99.90;2.30;96742.00;;;;5031121;28;20478;-69
2023/02/01 04:08:36;;;;;;;1.23;0.40;;;1.00;99.90;1.80;96747.00;;;;5021162;28;20451;-69
2023/02/01 04:11:27;;;;;;;1.37;0.90;;;1.10;99.90;2.00;96735.00;;;;5017537;28;21144;-69
2023/02/01 04:14:16;;;;;;;1.43;0.80;;;1.00;99.90;2.00;96736.00;;;;5027452;28;20433;-69
2023/02/01 04:17:04;;;;;;;1.40;1.30;;;0.90;99.90;2.00;96734.00;;;;5031901;28;20455;-69
2023/02/01 04:19:53;;;;;;;1.50;1.40;;;0.90;99.90;2.00;96736.00;;;;5020753;28;20471;-69
2023/02/01 04:22:43;;;;;;;0.90;0.87;;;0.90;99.90;2.00;96724.00;;;;5030185;28;20424;-69
2023/02/01 04:25:31;;;;;;;0.50;0.50;;;0.90;99.90;2.20;96718.00;;;;5030755;28;20432;-70
2023/02/01 04:28:21;;;;;;;0.50;0.50;;;0.90;99.90;2.10;96702.00;;;;5029999;28;20440;-70
2023/02/01 04:31:10;;;;;;;1.23;0.97;;;1.00;99.90;2.00;96713.00;;;;5029276;28;20502;-69
2023/02/01 04:33:59;;;;;;;0.70;0.70;;;1.00;99.90;2.10;96721.00;;;;5030615;28;20534;-69
2023/02/01 04:36:48;;;;;;;1.00;0.70;;;1.00;99.90;1.40;96723.00;;;;5083307;28;20623;-69
2023/02/01 04:39:37;;;;;;;0.63;0.63;;;0.80;99.90;1.80;96724.00;;;;5078509;28;20831;-69
2023/02/01 04:42:26;;;;;;;0.77;0.60;;;0.80;99.90;2.00;96733.00;;;;5086129;28;20459;-68
2023/02/01 04:45:15;;;;;;;0.77;0.77;;;0.80;99.90;1.70;96736.00;;;;5104770;28;20460;-68
2023/02/01 04:48:04;;;;;;;1.50;0.60;;;0.80;99.90;1.90;96749.00;;;;5106070;28;20441;-67
2023/02/01 04:50:53;;;;;;;0.77;0.70;;;0.80;99.90;2.20;96733.00;;;;5107439;28;20413;-67
2023/02/01 04:53:43;;;;;;;0.40;0.40;;;0.90;99.90;2.20;96729.00;;;;5105532;28;20461;-67
2023/02/01 04:56:31;;;;;;;0.80;0.80;;;0.90;99.90;1.90;96721.00;;;;5106413;28;20495;-68
2023/02/01 04:59:20;;;;;;;0.60;0.60;;;0.90;99.90;1.70;96735.00;;;;5105287;28;20428;-68
2023/02/01 05:02:09;;;;;;;0.53;0.53;;;0.90;99.90;1.70;96729.00;;;;5107207;28;20432;-68
2023/02/01 05:04:58;;;;;;;1.20;0.87;;;0.90;99.90;1.70;96717.00;;;;5098415;28;20429;-68
2023/02/01 05:07:47;;;;;;;1.30;0.90;;;0.70;99.90;1.20;96722.00;;;;5088513;28;20437;-68
2023/02/01 05:10:37;;;;;;;0.83;0.83;;;0.70;99.90;1.40;96733.00;;;;5086284;28;20514;-68
2023/02/01 05:16:32;;;;;;;1.23;0.80;;;0.40;99.90;1.40;96715.00;;;;5105727;28;20486;-68
2023/02/01 05:19:21;;;;;;;1.27;0.70;;;0.40;99.90;1.10;96728.00;;;;5090410;28;20425;-67
2023/02/01 05:22:10;;;;;;;0.80;0.80;;;0.30;99.90;1.30;96740.00;;;;5082704;28;20852;-67
2023/02/01 05:24:59;;;;;;;0.90;0.50;;;0.30;99.90;1.50;96724.00;;;;5089930;28;20444;-67
2023/02/01 05:27:49;;;;;;;0.30;0.30;;;0.30;99.90;1.10;96727.00;;;;5074800;28;21008;-69
2023/02/01 05:30:37;;;;;;;0.90;0.90;;;0.30;99.90;1.40;96739.00;;;;5081824;28;20429;-68
2023/02/01 05:33:29;;;;;;;0.50;0.50;;;0.40;99.90;1.60;96739.00;;;;5099360;28;20897;-68
2023/02/01 05:36:18;;;;;;;0.40;0.40;;;0.60;99.90;1.60;96739.00;;;;5087144;28;21011;-67
2023/02/01 05:39:07;;;;;;;0.53;0.53;;;0.50;99.90;0.90;96729.00;;;;5096941;28;20498;-70
2023/02/01 05:41:56;;;;;;;0.63;0.50;;;0.40;99.90;1.20;96730.00;;;;5081117;28;20520;-67
2023/02/01 05:44:46;;;;;;;7.57;0.90;;;0.30;99.90;1.40;96742.00;;;;5080059;28;20437;-66
2023/02/01 05:47:34;;;;;;;0.50;0.50;;;0.40;99.90;1.60;96734.00;;;;5070401;28;20995;-66
2023/02/01 05:50:23;;;;;;;0.83;0.60;;;0.40;99.90;1.40;96747.00;;;;5072557;28;20426;-67
2023/02/01 05:53:13;;;;;;;1.10;0.80;;;0.40;99.90;1.50;96746.00;;;;5087967;28;20454;-67
2023/02/01 05:56:02;;;;;;;1.03;0.97;;;0.40;99.90;1.20;96740.00;;;;5080954;28;20895;-66
2023/02/01 05:58:51;;;;;;;2.67;0.93;;;0.30;99.90;0.90;96749.00;;;;5067125;28;20442;-69
2023/02/01 06:01:41;;;;;;;1.47;1.37;;;0.30;99.90;1.30;96763.00;;;;5067452;28;20434;-69
2023/02/01 06:04:30;;;;;;;2.23;2.03;;;0.30;99.90;1.30;96759.00;;;;5076429;28;20456;-69
2023/02/01 06:07:18;;;;;;;1.50;1.40;;;0.30;99.90;1.30;96747.00;;;;5083052;28;20962;-69
2023/02/01 06:10:08;;;;;;;1.90;1.60;;;0.30;99.90;1.10;96747.00;;;;5069115;28;20787;-69
2023/02/01 06:12:57;;;;;;;2.00;1.67;;;0.20;99.90;0.60;96746.00;;;;5080700;28;20783;-67
2023/02/01 06:15:46;;;;;;;3.27;1.87;;;0.10;99.90;0.70;96732.00;;;;5091830;28;20465;-68
2023/02/01 06:18:37;;;;;;;3.67;2.23;;;0.00;99.90;0.80;96757.00;;;;5081992;28;20460;-68
2023/02/01 06:21:26;;;;;;;1.50;1.40;;;0.00;99.90;0.60;96743.00;;;;5059684;28;20423;-68
2023/02/01 06:24:15;;;;;;;3.17;1.93;;;-0.10;99.90;0.70;96753.00;;;;5070829;28;20434;-68
2023/02/01 06:27:04;;;;;;;2.80;1.47;;;-0.20;99.90;0.70;96766.00;;;;5069946;28;20481;-69
2023/02/01 06:29:54;;;;;;;2.80;2.43;;;-0.20;99.90;0.30;96760.00;;;;5071332;28;20473;-67
2023/02/01 06:32:43;;;;;;;2.53;2.03;;;-0.30;99.90;0.60;96764.00;;;;5074151;28;20430;-67
2023/02/01 06:35:33;;;;;;;3.03;1.50;;;-0.30;99.90;0.70;96766.00;;;;5068794;28;20550;-68
2023/02/01 06:38:22;;;;;;;2.90;1.70;;;-0.30;99.90;0.50;96770.00;;;;5070466;28;20434;-68
2023/02/01 06:41:11;;;;;;;2.23;2.13;;;-0.40;99.90;0.60;96777.00;;;;5074522;28;21308;-67
2023/02/01 06:44:00;;;;;;;2.00;1.80;;;-0.40;99.90;0.30;96775.00;;;;5059502;28;20411;-67
2023/02/01 06:46:49;;;;;;;2.23;1.57;;;-0.40;99.90;0.50;96777.00;;;;5078045;28;20465;-67
2023/02/01 06:49:37;;;;;;;3.10;1.77;;;-0.50;99.90;0.60;96782.00;;;;5064973;28;20454;-67
2023/02/01 06:52:27;;;;;;;2.53;2.00;;;-0.50;99.90;0.30;96785.00;;;;5066465;28;20445;-67
2023/02/01 06:55:16;;;;;;;4.60;1.90;;;-0.50;99.90;0.10;96772.00;;;;5066294;28;20422;-65
2023/02/01 06:58:05;;;;;;;4.87;2.07;;;-0.50;99.90;0.80;96781.00;;;;5086023;28;20449;-66
2023/02/01 07:00:54;;;;;;;1.50;1.40;;;-0.40;99.90;1.00;96781.00;;;;5091518;28;20421;-67
2023/02/01 07:03:43;;;;;;;3.33;1.70;;;-0.30;99.90;0.90;96793.00;;;;5089986;28;20972;-68
2023/02/01 07:06:32;;;;;;;5.70;2.37;;;-0.20;99.90;1.10;96793.00;;;;5090526;28;20463;-69
2023/02/01 07:09:22;;;;;;;5.00;2.90;;;-0.10;99.90;1.20;96774.00;;;;5071624;28;20961;-68
2023/02/01 07:12:11;;;;;;;3.70;2.93;;;-0.10;99.90;0.90;96788.00;;;;5069556;28;20497;-68
2023/02/01 07:15:01;;;;;;;5.27;2.27;;;0.00;99.90;1.10;96788.00;;;;5069314;28;20432;-69
2023/02/01 07:17:50;;;;;;;3.63;2.73;;;0.00;99.90;1.20;96783.00;;;;5066635;28;20473;-69
2023/02/01 07:20:38;;;;;;;4.00;2.83;;;0.10;99.90;1.50;96775.00;;;;5072718;28;20421;-69
2023/02/01 07:23:27;;;;;;;5.50;1.83;;;0.20;99.90;1.50;96768.00;;;;5070030;28;20421;-68
2023/02/01 07:26:17;;;;;;;3.37;1.90;;;0.30;99.90;1.80;96768.00;;;;5071464;28;20434;-69
2023/02/01 07:29:06;;;;;;;1.83;1.67;;;0.30;99.90;2.00;96788.00;;;;5071529;28;20420;-69
2023/02/01 07:31:55;;;;;;;3.20;2.63;;;0.50;99.90;1.60;96785.00;;;;5073421;28;20471;-69
2023/02/01 07:34:44;;;;;;;2.07;1.73;;;0.60;99.90;1.50;96787.00;;;;5070954;28;20419;-67
2023/02/01 07:37:32;;;;;;;2.60;2.17;;;0.60;99.90;2.10;96794.00;;;;5065494;28;20518;-68
2023/02/01 07:40:28;;;;;;;2.60;2.13;;;0.70;99.90;2.70;96795.00;;;;5087719;28;20479;-67
2023/02/01 07:43:18;;;;;;;3.33;2.20;;;0.90;99.90;3.10;96791.00;;;;5089726;28;20543;-67
2023/02/01 07:46:08;;;;;;;3.43;2.63;;;1.20;99.90;2.70;96791.00;;;;5085300;28;20982;-67
2023/02/01 07:48:57;;;;;;;5.17;3.17;;;1.40;99.90;3.20;96797.00;;;;5066509;28;20419;-67
2023/02/01 07:51:45;;;;;;;3.43;3.10;;;1.60;99.90;3.00;96790.00;;;;5074918;28;20410;-68
2023/02/01 07:54:34;;;;;;;7.57;2.57;;;1.70;99.90;3.70;96788.00;;;;5089713;28;20927;-67
2023/02/01 07:57:23;;;;;;;4.93;2.97;;;1.90;99.90;4.00;96800.00;;;;5088273;28;20523;-68
2023/02/01 08:03:21;;;;;;;3.03;2.23;;;2.40;99.90;3.00;96801.00;;;;5061237;28;20475;-69
2023/02/01 08:06:09;;;;;;;6.33;2.83;;;2.40;99.90;3.20;96802.00;;;;5077928;28;20425;-68
2023/02/01 08:08:59;;;;;;;5.47;2.37;;;2.40;99.90;3.90;96806.00;;;;5076510;28;20425;-67
2023/02/01 08:11:47;;;;;;;6.83;2.73;;;2.50;99.90;4.60;96813.00;;;;5070342;28;20426;-68
2023/02/01 08:14:36;;;;;;;5.70;2.60;;;2.70;99.90;4.40;96818.00;;;;5069495;28;20407;-67
2023/02/01 08:17:28;;;;;;;2.93;2.50;;;2.90;99.90;5.10;96824.00;;;;5063199;28;20472;-67
2023/02/01 08:20:17;;;;;;;5.30;2.97;;;3.10;99.90;5.50;96825.00;;;;5089308;28;20945;-67
2023/02/01 08:23:09;;;;;;;3.80;3.10;;;3.40;99.90;5.90;96825.00;;;;5076711;28;20510;-68
2023/02/01 08:26:07;;;;;;;6.07;3.17;;;3.70;99.90;6.30;96819.00;;;;5088962;28;20191;-68
2023/02/01 08:28:59;;;;;;;3.10;2.73;;;4.00;99.90;6.50;96819.00;;;;5088407;28;20245;-69
2023/02/01 08:31:48;;;;;;;6.13;2.67;;;4.40;99.90;6.80;96822.00;;;;5072614;28;20200;-69
2023/02/01 08:34:38;;;;;;;3.03;2.60;;;4.80;99.90;5.70;96811.00;;;;5068788;28;20808;-69
2023/02/01 08:37:26;;;;;;;6.27;3.57;;;4.80;99.90;6.50;96812.00;;;;5089608;28;20346;-67
2023/02/01 08:40:15;;;;;;;10.67;2.97;;;4.80;99.90;6.20;96815.00;;;;5089898;28;20257;-67
2023/02/01 08:43:04;;;;;;;5.60;2.53;;;4.90;99.90;6.30;96812.00;;;;5088511;28;20199;-68
2023/02/01 08:45:56;;;;;;;4.57;3.83;;;5.00;99.90;7.00;96812.00;;;;5089696;28;20934;-68
2023/02/01 08:48:47;;;;;;;5.50;3.10;;;5.20;99.90;7.70;96822.00;;;;5075850;28;20224;-68
2023/02/01 08:51:37;;;;;;;8.47;3.43;;;5.40;99.90;8.10;96818.00;;;;5065913;28;20739;-67
2023/02/01 08:54:26;;;;;;;6.60;2.37;;;5.80;99.90;8.50;96809.00;;;;5089575;28;20199;-67
2023/02/01 08:57:15;;;;;;;11.03;2.83;;;6.00;99.90;8.70;96803.00;;;;5087216;28;20304;-68
2023/02/01 09:00:07;;;;;;;12.37;3.67;;;6.50;99.90;9.00;96807.00;;;;5088795;28;20718;-66
2023/02/01 09:02:56;;;;;;;5.50;3.00;;;6.80;99.90;9.10;96806.00;;;;5084284;28;20196;-66
2023/02/01 09:05:45;;;;;;;2.77;2.20;;;7.10;99.90;8.90;96799.00;;;;5083060;28;20576;-67
2023/02/01 09:08:39;;;;;;;2.63;1.77;;;7.30;99.90;9.20;96796.00;;;;5087715;28;20616;-67
2023/02/01 09:11:28;;;;;;;3.57;1.80;;;7.50;99.90;9.90;96805.00;;;;5088564;28;20199;-67
2023/02/01 09:14:17;;;;;;;2.03;1.63;;;7.70;99.90;10.10;96777.00;;;;5086377;28;20274;-67
2023/02/01 09:17:06;;;;;;;4.10;1.90;;;8.00;99.90;10.50;96801.00;;;;5088920;28;20235;-68
2023/02/01 09:19:55;;;;;;;5.13;1.77;;;8.30;99.90;10.30;96800.00;;;;5088702;28;20580;-67
2023/02/01 09:22:43;;;;;;;8.43;1.70;;;8.50;99.90;10.40;96801.00;;;;5071918;28;20220;-67
2023/02/01 09:25:33;;;;;;;2.10;1.03;;;8.60;99.10;10.70;96800.00;;;;5076916;28;20199;-67
2023/02/01 09:28:22;;;;;;;2.60;1.13;;;8.80;98.30;10.80;96786.00;;;;5074239;28;20683;-65
2023/02/01 09:31:11;;;;;;;4.17;0.80;;;9.00;97.50;10.40;96790.00;;;;5070216;28;20278;-65
2023/02/01 09:34:00;;;;;;;0.60;0.60;;;9.10;95.10;10.70;96783.00;;;;5087127;28;20678;-66
2023/02/01 09:36:48;;;;;;;0.80;0.50;;;9.10;94.30;11.20;96781.00;;;;5069496;28;20249;-66
2023/02/01 09:39:37;;;;;;;0.53;0.50;;;9.30;94.70;11.40;96770.00;;;;5066906;28;20204;-67
2023/02/01 09:42:57;;;;;;;3.93;0.57;;;9.40;93.40;11.40;96760.00;;;;5070636;28;20207;-66
2023/02/01 09:45:58;;;;;;;0.67;0.30;;;9.60;93.60;11.30;96767.00;;;;5070352;28;20195;-70
2023/02/01 09:48:48;;;;;;;0.67;0.50;;;9.70;92.20;11.40;96760.00;;;;5072958;28;20212;-67
2023/02/01 09:51:43;;;;;;;0.40;0.40;;;9.70;91.60;11.10;96762.00;;;;5079089;28;20588;-70
2023/02/01 09:54:45;;;;;;;1.30;0.57;;;9.70;90.80;11.70;96764.00;;;;5081448;28;20207;-67
2023/02/01 09:57:47;;;;;;;1.23;0.60;;;9.90;91.00;11.90;96757.00;;;;5072972;28;20223;-66
2023/02/01 10:00:39;;;;;;;0.40;0.20;;;11.00;90.70;12.00;96747.00;;;;5074618;28;20232;-65
2023/02/01 10:03:31;;;;;;;1.73;0.67;;;10.10;90.20;12.10;96747.00;;;;5071761;28;20207;-64
2023/02/01 10:06:43;;;;;;;0.50;0.40;;;10.20;89.30;11.50;96756.00;;;;5071916;28;20196;-67
2023/02/01 10:09:59;;;;;;;1.23;0.43;;;10.20;84.20;11.40;96744.00;;;;5069753;28;20280;-67
2023/02/01 10:13:09;;;;;;;0.97;0.43;;;10.10;83.80;12.20;96728.00;;;;5064458;28;20212;-65
2023/02/01 10:16:14;;;;;;;0.47;0.43;;;10.30;85.20;11.70;96742.00;;;;5071742;28;20200;-68
2023/02/01 10:19:25;;;;;;;1.13;0.60;;;10.50;79.60;12.90;96722.00;;;;5066578;28;20744;-67
2023/02/01 10:22:30;;;;;;;0.60;0.57;;;10.60;83.70;13.40;96744.00;;;;5070153;28;20215;-67
2023/02/01 10:25:48;;;;;;;1.93;1.23;;;11.00;83.00;13.30;96716.00;;;;5071055;28;20203;-68
2023/02/01 10:28:39;;;;;;;0.70;0.53;;;11.30;82.20;13.10;96715.00;;;;5071212;28;20231;-67
2023/02/01 10:31:32;;;;;;;0.93;0.83;;;11.40;76.10;13.50;96725.00;;;;5071721;28;20254;-67
2023/02/01 10:34:25;;;;;;;2.67;1.50;;;11.60;77.80;13.80;96727.00;;;;5071330;28;20192;-67
2023/02/01 10:37:27;;;;;;;0.97;0.73;;;11.80;80.80;13.20;96718.00;;;;5071527;28;20277;-66
2023/02/01 10:40:22;;;;;;;1.27;0.60;;;11.80;77.50;13.30;96698.00;;;;5072114;28;20208;-67
2023/02/01 10:43:11;;;;;;;3.63;0.77;;;11.80;76.20;13.50;96725.00;;;;5071162;28;20580;-67
2023/02/01 10:46:01;;;;;;;1.67;0.80;;;12.20;74.30;13.10;96702.00;;;;5071467;28;20733;-67
2023/02/01 10:48:54;;;;;;;1.43;0.80;;;12.20;72.20;13.80;96687.00;;;;5064687;28;20204;-68
2023/02/01 10:51:49;;;;;;;1.07;0.70;;;12.60;73.70;14.00;96694.00;;;;5066488;28;20203;-67
2023/02/01 10:54:39;;;;;;;0.60;0.60;;;13.00;72.80;14.50;96725.00;;;;5071195;28;20283;-67
2023/02/01 10:57:29;;;;;;;1.13;0.80;;;13.40;72.90;14.10;96724.00;;;;5070271;28;20227;-67
2023/02/01 11:00:22;;;;;;;0.50;0.50;;;13.30;70.40;13.60;96720.00;;;;5071287;28;20631;-68
2023/02/01 11:03:35;;;;;;;5.60;0.90;;;13.00;69.00;13.00;96717.00;;;;5069230;28;20196;-67
2023/02/01 11:06:31;;;;;;;0.97;0.60;;;12.50;69.00;12.90;96694.00;;;;5069209;28;20227;-67
2023/02/01 11:09:23;;;;;;;0.40;0.40;;;12.10;70.50;12.50;96660.00;;;;5066939;28;20196;-69
2023/02/01 11:12:29;;;;;;;0.30;0.30;;;11.90;68.10;11.80;96639.00;;;;5066802;28;20204;-68
2023/02/01 11:15:21;;;;;;;0.50;0.47;;;11.60;64.30;11.90;96623.00;;;;5069987;28;20202;-65
2023/02/01 11:18:18;;;;;;;0.37;0.37;;;11.30;71.10;11.30;96599.00;;;;5070407;28;20224;-68
2023/02/01 11:21:11;;;;;;;0.20;0.20;;;11.50;59.50;11.80;96591.00;;;;5069297;28;20207;-69
2023/02/01 11:24:04;;;;;;;1.10;0.20;;;11.70;59.40;12.50;96593.00;;;;5069405;28;20211;-70
2023/02/01 11:26:56;;;;;;;0.30;0.30;;;12.00;59.30;12.90;96617.00;;;;5069913;28;20216;-64
2023/02/01 11:29:48;;;;;;;0.63;0.40;;;12.20;59.30;13.20;96600.00;;;;5070230;28;20215;-68
2023/02/01 11:32:39;;;;;;;0.87;0.60;;;12.50;58.20;13.20;96615.00;;;;5069932;28;20574;-68
2023/02/01 11:35:31;;;;;;;0.30;0.30;;;12.80;57.20;14.10;96608.00;;;;5069227;28;20257;-66
2023/02/01 11:38:28;;;;;;;0.40;0.40;;;13.00;57.00;14.20;96581.00;;;;5069597;28;20220;-65
2023/02/01 11:41:24;;;;;;;0.30;0.30;;;13.20;56.30;14.70;96593.00;;;;5068927;28;20591;-64
2023/02/01 11:44:23;;;;;;;0.40;0.33;;;13.40;56.20;13.50;96572.00;;;;5065144;28;20269;-69
2023/02/01 11:47:27;;;;;;;0.30;0.30;;;13.30;54.20;13.80;96584.00;;;;5066459;28;20216;-63
2023/02/01 11:50:21;;;;;;;1.20;0.60;;;13.30;54.40;15.40;96586.00;;;;5069474;28;20222;-64
2023/02/01 11:53:38;;;;;;;0.30;0.30;;;13.70;55.40;14.60;96578.00;;;;5070334;28;20266;-69
2023/02/01 11:56:37;;;;;;;0.30;0.30;;;14.00;53.10;13.50;96556.00;;;;5062803;28;20196;-66
2023/02/01 11:59:46;;;;;;;0.63;0.30;;;15.20;53.40;14.40;96576.00;;;;5068644;28;20277;-69
2023/02/01 12:03:06;;;;;;;0.40;0.40;;;13.60;52.80;14.70;96578.00;;;;5068309;28;20605;-66
2023/02/01 12:06:01;;;;;;;2.20;0.40;;;13.90;52.90;16.10;96596.00;;;;5064468;28;20253;-65
2023/02/01 12:09:18;;;;;;;1.47;0.30;;;14.10;53.60;17.50;96583.00;;;;5059871;28;20203;-65
2023/02/01 12:12:18;;;;;;;0.30;0.30;;;14.80;53.40;15.40;96578.00;;;;5061503;28;20216;-64
2023/02/01 12:15:32;;;;;;;0.60;0.30;;;15.00;51.90;15.20;96574.00;;;;5067301;28;20195;-64
2023/02/01 12:18:56;;;;;;;4.10;0.50;;;14.60;50.90;17.30;96586.00;;;;5069091;28;20235;-65
2023/02/01 12:22:02;;;;;;;0.37;0.37;;;14.90;51.50;18.10;96594.00;;;;5066133;28;20438;-65
2023/02/01 12:25:22;;;;;;;1.60;0.30;;;15.70;51.20;16.50;96584.00;;;;5062943;28;20214;-66
2023/02/01 12:28:55;;;;;;;0.77;0.30;;;15.70;49.60;18.00;96605.00;;;;5060383;28;20216;-65
2023/02/01 12:32:09;;;;;;;0.67;0.33;;;16.20;48.50;17.60;96609.00;;;;5069516;28;20200;-64
2023/02/01 12:35:37;;;;;;;1.03;0.50;;;16.40;48.70;18.30;96604.00;;;;5068919;28;20212;-66
2023/02/01 12:38:52;;;;;;;1.07;0.40;;;16.30;48.50;16.40;96587.00;;;;5066906;28;20257;-65
2023/02/01 12:41:51;;;;;;;3.00;0.50;;;16.00;47.70;17.90;96603.00;;;;5066400;28;20207;-65
2023/02/01 12:44:48;;;;;;;0.80;0.50;;;16.30;48.20;18.50;96624.00;;;;5061369;28;20211;-67
2023/02/01 12:47:43;;;;;;;0.83;0.40;;;16.70;48.10;18.80;96610.00;;;;5058605;28;20702;-65
2023/02/01 12:50:41;;;;;;;1.13;0.20;;;16.90;48.30;16.40;96590.00;;;;5061756;28;20215;-67
2023/02/01 12:53:42;;;;;;;0.30;0.30;;;16.80;46.00;15.30;96590.00;;;;5068251;28;20613;-69
2023/02/01 12:56:38;;;;;;;3.23;0.50;;;16.10;46.50;17.00;96653.00;;;;5069217;28;20204;-64
2023/02/01 12:59:35;;;;;;;2.63;0.30;;;16.10;47.00;18.00;96611.00;;;;5071990;28;20266;-65
2023/02/01 13:02:35;;;;;;;0.30;0.30;;;16.30;47.30;17.30;96640.00;;;;5073651;28;20207;-63
2023/02/01 13:05:34;;;;;;;0.57;0.57;;;16.30;46.90;18.30;96612.00;;;;5064794;28;20992;-64
2023/02/01 13:08:26;;;;;;;0.43;0.40;;;16.40;46.60;17.10;96688.00;;;;5061042;28;20220;-66
2023/02/01 13:11:22;;;;;;;0.30;0.30;;;16.60;45.50;16.50;96641.00;;;;5068501;28;20260;-64
2023/02/01 13:14:33;;;;;;;0.50;0.30;;;15.80;46.40;15.40;96655.00;;;;5064017;28;20200;-64
2023/02/01 13:17:26;;;;;;;0.30;0.30;;;15.30;47.10;13.30;96634.00;;;;5072292;28;20230;-64
2023/02/01 13:20:22;;;;;;;1.07;0.40;;;14.20;47.70;13.80;96649.00;;;;5072866;28;20227;-65
2023/02/01 13:23:23;;;;;;;0.60;0.43;;;13.50;48.30;15.10;96701.00;;;;5071647;28;20203;-65
2023/02/01 13:26:12;;;;;;;0.43;0.43;;;13.60;49.60;16.10;96642.00;;;;5061238;28;20239;-64